x

Portland 12 Nm Southeast Of Portland,me (44007) Wave Buoy

3:50 - Fri 6th May 2016 All times are EDT. -4 hours from GMT.

  • Sig Wave height 3.9ft
  • Swell Direction
  • Peak Period 7s
  • Average Period 5s
  • Wind
    20mph, 25mph gusts
  • Sea Temp 44°f
  • Air Temp 46°f
  • Sea Pressure 1003.7mb
  • Portland 12 Nm Southeast Of Portland,me
  • Portland 12 Nm Southeast Of Portland,me

More Historic Weather Station data

Upgrade to MSW Pro to gain access to the past 30 days of data for over 8000 Wavebouys and Weather Stations around the globe.

Join Pro

Comparision Forecast

View Surf forecast
   
ven. 05/06 3:50 4ft 7s 5s 20 25 mph 1003.7mb 44f 46f
2:50 4ft 7s 5s 16 20 mph 1004mb 43f 45f
1:50 4ft 7s 5s 16 18 mph 1004.5mb 43f 45f
12:50 4.5ft 8s 5s 16 18 mph 1004.5mb 43f 45f
jeu. 05/05 11:50 4.5ft 8s 5s 16 20 mph 1004.8mb 43f 45f
10:50 4.5ft 8s 5s 16 18 mph 1005.3mb 43f 45f
9:50 4.5ft 7s 5s 18 20 mph 1005.9mb 43f 45f
8:50 5ft 7s 6s 18 22 mph 1006.1mb 43f 45f
7:50 5ft 8s 6s 16
mph
1007.1mb 44f 45f
6:50 5ft 8s 5s 18 20 mph 1007.4mb 44f 45f
5:50 5ft 8s 6s 18 22 mph 1007.8mb 44f 46f
4:50 5ft 8s 6s 13 16 mph 1008mb 44f 45f
3:50 5.5ft 8s 6s 16
mph
1008.3mb 44f 45f
2:50 5ft 7s 6s 13 16 mph 1008.9mb 44f 45f
1:50 5.5ft 8s 6s 16 18 mph 1009.2mb 43f 45f
12:50 6ft 7s 5s 16 18 mph 1008.8mb 43f 44f
11:50 6ft 7s 6s 18 20 mph 1009.1mb 43f 44f
10:50 5.5ft 7s 6s 18 22 mph 1009.1mb 43f 44f
9:50 5.5ft 7s 5s 18 22 mph 1009.1mb 43f 44f
8:50 5ft 7s 5s 16 20 mph 1009.1mb 44f 44f
7:50 5.5ft 8s 6s 20 22 mph 1008.4mb 44f 44f
6:50 4.5ft 8s 5s 20 25 mph 1008.3mb 44f 44f
5:50 4.5ft 8s 5s 20 22 mph 1008.4mb 44f 44f
4:50 4ft 8s 5s 20 25 mph 1008mb 44f 44f
3:50 4ft 8s 5s 18 22 mph 1008.1mb 44f 44f
2:50 3.5ft 8s 5s 20 22 mph 1008.5mb 44f 44f
1:50 4ft 6s 5s 18 20 mph 1009.4mb 44f 44f
12:50 4.5ft 6s 5s 18 22 mph 1009.8mb 44f 43f
mer. 05/04 11:50 4.5ft 6s 5s 20 25 mph 1009.7mb 44f 43f
10:50 5ft 6s 5s 22 25 mph 1010.6mb 44f 43f
9:50 5ft 6s 5s 18 22 mph 1011.1mb 44f 43f
8:50 5ft 6s 5s 18 22 mph 1011.5mb 44f 43f
7:50 5ft 9s 5s 18 22 mph 1011.7mb 44f 43f
6:50 4.5ft 8s 5s 20 22 mph 1010.8mb 44f 43f
5:50 4.5ft 8s 5s 20 22 mph 1011.7mb 45f 43f
4:50 3.5ft 8s 5s 18 22 mph 1011.5mb 45f 43f
3:50 3ft 9s 5s 16 18 mph 1012.3mb 45f 43f
2:50 2.5ft 8s 5s 13 18 mph 1012.4mb 45f 43f
1:50 2ft 8s 5s 11 13 mph 1013.1mb 46f 44f
12:50 1.6ft 9s 6s 11 13 mph 1012.9mb 46f 45f
11:50 2ft 10s 7s 9
mph
1013.8mb 46f 45f
10:50 2.5ft 8s 7s 11 13 mph 1012.4mb 46f 45f
9:50 2.5ft 7s 7s 11 13 mph 1012.3mb 46f 46f
8:50 2.5ft 7s 7s 7 9 mph 1012.9mb 46f 46f
7:50 2.5ft 8s 7s 7
mph
1012.8mb 45f 46f
6:50 2.5ft 8s 7s 2
mph
1012.5mb 45f 45f
5:50 2.5ft 8s 7s 2
mph
1012mb 44f 44f
4:50 2.5ft 8s 7s 2 4 mph 1011.7mb 44f 44f
3:50 2.5ft 8s 7s 4 7 mph 1011.7mb 44f 45f
2:50 2.5ft 9s 7s 4
mph
1011.4mb 45f 45f
1:50 2.5ft 8s 7s 2
mph
1011.8mb 45f 45f
12:50 2ft 8s 7s 2 4 mph 1011.8mb 45f 45f
mar. 05/03 11:50 2ft 9s 7s 4
mph
1011.7mb 45f 45f
10:50 2.5ft 9s 7s 4
mph
1011.9mb 45f 45f
9:50 2.5ft 8s 7s  -  2 mph 1012mb 45f 45f
8:50 2.5ft 9s 7s 2 4 mph 1012mb 46f 45f
7:50 2.5ft 7s 7s 7
mph
1011.4mb 46f 45f
6:50 2.5ft 8s 7s 7
mph
1011mb 45f 45f
5:50 3ft 9s 7s 7
mph
1011mb 46f 45f
4:50 3ft 8s 7s 7
mph
1011.5mb 46f 45f
3:50 2.5ft 8s 7s 4 7 mph 1011.4mb 46f 45f
2:50 2.5ft 9s 7s 4 7 mph 1011.5mb 46f 44f
1:50 3ft 8s 7s 7 9 mph 1011.8mb 46f 44f
12:50 2.5ft 6s 6s 7
mph
1012.4mb 46f 44f
11:50 3ft 7s 6s 4
mph
1012.7mb 45f 44f
10:50 3ft 8s 6s 4
mph
1013.1mb 45f 44f
8:50 3ft 7s 6s 2 4 mph 1013.2mb 44f 43f
7:50 3.5ft 7s 6s 2 4 mph 1013.5mb 44f 42f
6:50 3.5ft 8s 6s 9 11 mph 1013.2mb 44f 42f
5:50 4.5ft 7s 6s 9
mph
1013.2mb 44f 42f
4:50 4ft 8s 6s 7 9 mph 1012.8mb 44f 43f
3:50 4.5ft 8s 6s 16 18 mph 1012.2mb 44f 43f
2:50 4ft 7s 6s 13 16 mph 1012.6mb 44f 43f
1:50 4ft 7s 5s 16 20 mph 1012.6mb 44f 44f
12:50 4.5ft 7s 6s 16 18 mph 1012.8mb 44f 44f
lun. 05/02 11:50 4.5ft 7s 6s 13 16 mph 1013.2mb 44f 44f
10:50 4.5ft 7s 5s 16 18 mph 1013.2mb 45f 44f
9:50 4.5ft 7s 5s 16 18 mph 1012.4mb 44f 44f
8:50 4.5ft 6s 5s 13 18 mph 1012.2mb 44f 45f
7:50 4.5ft 7s 5s 16 18 mph 1012mb 44f 44f
6:50 4.5ft 7s 5s 20 25 mph 1011.3mb 44f 44f
5:50 5ft 8s 5s 13 16 mph 1012.3mb 44f 44f
4:50 5ft 6s 5s 16 20 mph 1013.3mb 44f 43f
3:50 4.5ft 8s 5s 20 25 mph 1011.9mb 44f 43f
2:50 4.5ft 8s 5s 16 20 mph 1014.2mb 44f 44f
1:50 3.5ft 8s 5s 13 16 mph 1015.5mb 44f 44f
12:50 4ft 8s 5s 9 11 mph 1016.2mb 44f 44f
11:50 4ft 8s 5s 13 16 mph 1016.8mb 44f 44f
10:50 3.5ft 9s 5s 13 16 mph 1017.5mb 44f 44f
9:50 3.5ft 9s 5s 16 18 mph 1018.3mb 44f 44f
8:50 3.5ft 9s 5s 13 18 mph 1018.6mb 44f 44f